sensor_id;sensor_type;location;lat;lon;timestamp;P1;durP1;ratioP1;P2;durP2;ratioP2
62268;SDS011;56517;51.634;5.566;2023-09-18T00:00:49;30.48;;;20.40;;
62268;SDS011;56517;51.634;5.566;2023-09-18T00:02:13;34.05;;;20.65;;
62268;SDS011;56517;51.634;5.566;2023-09-18T00:03:34;34.22;;;20.92;;
62268;SDS011;56517;51.634;5.566;2023-09-18T00:04:54;34.38;;;20.00;;
62268;SDS011;56517;51.634;5.566;2023-09-18T00:06:15;30.88;;;20.38;;
62268;SDS011;56517;51.634;5.566;2023-09-18T00:07:36;35.00;;;20.70;;
62268;SDS011;56517;51.634;5.566;2023-09-18T00:08:57;34.67;;;20.10;;
62268;SDS011;56517;51.634;5.566;2023-09-18T00:10:18;32.00;;;18.73;;
62268;SDS011;56517;51.634;5.566;2023-09-18T00:11:39;34.88;;;20.13;;
62268;SDS011;56517;51.634;5.566;2023-09-18T00:13:00;31.30;;;19.80;;
62268;SDS011;56517;51.634;5.566;2023-09-18T00:14:21;35.17;;;21.45;;
62268;SDS011;56517;51.634;5.566;2023-09-18T00:15:42;33.35;;;19.48;;
62268;SDS011;56517;51.634;5.566;2023-09-18T00:17:05;36.63;;;21.05;;
62268;SDS011;56517;51.634;5.566;2023-09-18T00:18:26;29.63;;;19.08;;
62268;SDS011;56517;51.634;5.566;2023-09-18T00:19:47;30.70;;;19.98;;
62268;SDS011;56517;51.634;5.566;2023-09-18T00:21:08;34.97;;;21.23;;
62268;SDS011;56517;51.634;5.566;2023-09-18T00:22:31;33.15;;;20.27;;
62268;SDS011;56517;51.634;5.566;2023-09-18T00:23:52;31.20;;;19.35;;
62268;SDS011;56517;51.634;5.566;2023-09-18T00:25:13;35.50;;;20.40;;
62268;SDS011;56517;51.634;5.566;2023-09-18T00:26:35;33.17;;;19.83;;
62268;SDS011;56517;51.634;5.566;2023-09-18T00:27:56;31.63;;;20.35;;
62268;SDS011;56517;51.634;5.566;2023-09-18T00:29:17;31.48;;;19.27;;
62268;SDS011;56517;51.634;5.566;2023-09-18T00:30:42;31.17;;;19.98;;
62268;SDS011;56517;51.634;5.566;2023-09-18T00:32:03;31.85;;;21.13;;
62268;SDS011;56517;51.634;5.566;2023-09-18T00:33:24;30.27;;;19.98;;
62268;SDS011;56517;51.634;5.566;2023-09-18T00:34:45;36.97;;;20.80;;
62268;SDS011;56517;51.634;5.566;2023-09-18T00:36:06;33.45;;;20.90;;
62268;SDS011;56517;51.634;5.566;2023-09-18T00:37:28;30.95;;;20.00;;
62268;SDS011;56517;51.634;5.566;2023-09-18T00:38:49;31.45;;;19.80;;
62268;SDS011;56517;51.634;5.566;2023-09-18T00:40:11;31.75;;;20.75;;
62268;SDS011;56517;51.634;5.566;2023-09-18T00:41:32;30.05;;;20.98;;
62268;SDS011;56517;51.634;5.566;2023-09-18T00:42:53;32.08;;;19.60;;
62268;SDS011;56517;51.634;5.566;2023-09-18T00:44:14;31.98;;;19.98;;
62268;SDS011;56517;51.634;5.566;2023-09-18T00:45:35;33.58;;;21.67;;
62268;SDS011;56517;51.634;5.566;2023-09-18T00:46:58;32.90;;;20.90;;
62268;SDS011;56517;51.634;5.566;2023-09-18T00:48:19;32.67;;;20.88;;
62268;SDS011;56517;51.634;5.566;2023-09-18T00:49:41;35.45;;;20.85;;
62268;SDS011;56517;51.634;5.566;2023-09-18T00:51:03;30.50;;;20.35;;
62268;SDS011;56517;51.634;5.566;2023-09-18T00:52:24;29.83;;;20.23;;
62268;SDS011;56517;51.634;5.566;2023-09-18T00:53:46;30.27;;;20.42;;
62268;SDS011;56517;51.634;5.566;2023-09-18T00:55:09;31.58;;;19.45;;
62268;SDS011;56517;51.634;5.566;2023-09-18T00:56:30;33.42;;;20.73;;
62268;SDS011;56517;51.634;5.566;2023-09-18T00:57:51;29.40;;;19.58;;
62268;SDS011;56517;51.634;5.566;2023-09-18T00:59:11;35.45;;;21.73;;
62268;SDS011;56517;51.634;5.566;2023-09-18T01:00:32;30.70;;;20.98;;
62268;SDS011;56517;51.634;5.566;2023-09-18T01:01:53;31.15;;;19.23;;
62268;SDS011;56517;51.634;5.566;2023-09-18T01:03:14;36.03;;;21.15;;
62268;SDS011;56517;51.634;5.566;2023-09-18T01:04:38;32.65;;;19.52;;
62268;SDS011;56517;51.634;5.566;2023-09-18T01:06:04;29.75;;;19.88;;
62268;SDS011;56517;51.634;5.566;2023-09-18T01:07:25;36.42;;;20.15;;
62268;SDS011;56517;51.634;5.566;2023-09-18T01:08:47;31.40;;;20.38;;
62268;SDS011;56517;51.634;5.566;2023-09-18T01:10:10;31.65;;;20.90;;
62268;SDS011;56517;51.634;5.566;2023-09-18T01:11:36;34.83;;;20.77;;
62268;SDS011;56517;51.634;5.566;2023-09-18T01:13:08;32.38;;;22.02;;
62268;SDS011;56517;51.634;5.566;2023-09-18T01:14:42;28.95;;;20.05;;
62268;SDS011;56517;51.634;5.566;2023-09-18T01:16:15;33.13;;;21.38;;
62268;SDS011;56517;51.634;5.566;2023-09-18T01:17:37;34.20;;;21.92;;
62268;SDS011;56517;51.634;5.566;2023-09-18T01:18:59;31.08;;;21.08;;
62268;SDS011;56517;51.634;5.566;2023-09-18T01:20:19;30.55;;;18.38;;
62268;SDS011;56517;51.634;5.566;2023-09-18T01:21:40;31.73;;;20.08;;
62268;SDS011;56517;51.634;5.566;2023-09-18T01:23:02;31.80;;;19.13;;
62268;SDS011;56517;51.634;5.566;2023-09-18T01:24:22;31.02;;;19.52;;
62268;SDS011;56517;51.634;5.566;2023-09-18T01:25:43;36.88;;;20.58;;
62268;SDS011;56517;51.634;5.566;2023-09-18T01:27:07;34.80;;;19.60;;
62268;SDS011;56517;51.634;5.566;2023-09-18T01:28:28;27.67;;;18.17;;
62268;SDS011;56517;51.634;5.566;2023-09-18T01:29:49;28.65;;;18.35;;
62268;SDS011;56517;51.634;5.566;2023-09-18T01:31:10;31.33;;;18.00;;
62268;SDS011;56517;51.634;5.566;2023-09-18T01:32:31;31.33;;;18.42;;
62268;SDS011;56517;51.634;5.566;2023-09-18T01:33:52;28.52;;;19.25;;
62268;SDS011;56517;51.634;5.566;2023-09-18T01:35:14;29.27;;;19.10;;
62268;SDS011;56517;51.634;5.566;2023-09-18T01:36:36;30.17;;;17.65;;
62268;SDS011;56517;51.634;5.566;2023-09-18T01:37:57;29.40;;;18.75;;
62268;SDS011;56517;51.634;5.566;2023-09-18T01:40:39;30.75;;;18.63;;
62268;SDS011;56517;51.634;5.566;2023-09-18T01:42:02;31.45;;;18.80;;
62268;SDS011;56517;51.634;5.566;2023-09-18T01:44:44;33.88;;;19.02;;
62268;SDS011;56517;51.634;5.566;2023-09-18T01:46:05;27.20;;;17.50;;
62268;SDS011;56517;51.634;5.566;2023-09-18T01:47:26;29.10;;;18.58;;
62268;SDS011;56517;51.634;5.566;2023-09-18T01:48:50;30.75;;;18.42;;
62268;SDS011;56517;51.634;5.566;2023-09-18T01:50:11;28.92;;;18.80;;
62268;SDS011;56517;51.634;5.566;2023-09-18T01:51:32;29.48;;;18.90;;
62268;SDS011;56517;51.634;5.566;2023-09-18T01:52:53;29.50;;;17.30;;
62268;SDS011;56517;51.634;5.566;2023-09-18T01:54:14;27.48;;;17.52;;
62268;SDS011;56517;51.634;5.566;2023-09-18T01:55:34;27.83;;;18.20;;
62268;SDS011;56517;51.634;5.566;2023-09-18T01:56:55;24.30;;;16.63;;
62268;SDS011;56517;51.634;5.566;2023-09-18T01:58:16;27.52;;;16.33;;
62268;SDS011;56517;51.634;5.566;2023-09-18T01:59:37;23.92;;;15.60;;
62268;SDS011;56517;51.634;5.566;2023-09-18T02:01:01;22.05;;;16.25;;
62268;SDS011;56517;51.634;5.566;2023-09-18T02:02:23;25.55;;;15.13;;
62268;SDS011;56517;51.634;5.566;2023-09-18T02:03:44;23.48;;;14.32;;
62268;SDS011;56517;51.634;5.566;2023-09-18T02:05:06;26.20;;;15.32;;
62268;SDS011;56517;51.634;5.566;2023-09-18T02:06:27;26.45;;;15.38;;
62268;SDS011;56517;51.634;5.566;2023-09-18T02:07:48;26.70;;;14.93;;
62268;SDS011;56517;51.634;5.566;2023-09-18T02:09:09;26.63;;;15.85;;
62268;SDS011;56517;51.634;5.566;2023-09-18T02:10:30;21.50;;;14.48;;
62268;SDS011;56517;51.634;5.566;2023-09-18T02:11:51;24.45;;;13.40;;
62268;SDS011;56517;51.634;5.566;2023-09-18T02:13:11;19.45;;;13.10;;
62268;SDS011;56517;51.634;5.566;2023-09-18T02:14:32;23.33;;;14.60;;
62268;SDS011;56517;51.634;5.566;2023-09-18T02:15:54;19.65;;;13.32;;
62268;SDS011;56517;51.634;5.566;2023-09-18T02:17:16;23.58;;;14.48;;
62268;SDS011;56517;51.634;5.566;2023-09-18T02:18:37;20.48;;;12.63;;
62268;SDS011;56517;51.634;5.566;2023-09-18T02:19:58;19.67;;;12.15;;
62268;SDS011;56517;51.634;5.566;2023-09-18T02:21:20;19.92;;;12.15;;
62268;SDS011;56517;51.634;5.566;2023-09-18T02:22:41;20.90;;;13.27;;
62268;SDS011;56517;51.634;5.566;2023-09-18T02:24:02;18.90;;;12.45;;
62268;SDS011;56517;51.634;5.566;2023-09-18T02:25:23;19.55;;;13.15;;
62268;SDS011;56517;51.634;5.566;2023-09-18T02:26:44;22.48;;;13.07;;
62268;SDS011;56517;51.634;5.566;2023-09-18T02:28:06;21.50;;;11.65;;
62268;SDS011;56517;51.634;5.566;2023-09-18T02:29:27;23.87;;;12.80;;
62268;SDS011;56517;51.634;5.566;2023-09-18T02:30:48;22.63;;;12.57;;
62268;SDS011;56517;51.634;5.566;2023-09-18T02:32:09;21.20;;;12.82;;
62268;SDS011;56517;51.634;5.566;2023-09-18T02:33:30;23.40;;;12.38;;
62268;SDS011;56517;51.634;5.566;2023-09-18T02:34:51;21.08;;;12.63;;
62268;SDS011;56517;51.634;5.566;2023-09-18T02:36:13;21.15;;;12.73;;
62268;SDS011;56517;51.634;5.566;2023-09-18T02:37:33;17.45;;;12.05;;
62268;SDS011;56517;51.634;5.566;2023-09-18T02:38:54;26.55;;;12.65;;
62268;SDS011;56517;51.634;5.566;2023-09-18T02:40:15;17.35;;;11.50;;
62268;SDS011;56517;51.634;5.566;2023-09-18T02:41:36;19.83;;;11.77;;
62268;SDS011;56517;51.634;5.566;2023-09-18T02:42:57;19.08;;;12.95;;
62268;SDS011;56517;51.634;5.566;2023-09-18T02:44:18;20.10;;;12.05;;
62268;SDS011;56517;51.634;5.566;2023-09-18T02:45:39;23.13;;;12.07;;
62268;SDS011;56517;51.634;5.566;2023-09-18T02:47:00;23.02;;;12.07;;
62268;SDS011;56517;51.634;5.566;2023-09-18T02:48:21;18.42;;;10.73;;
62268;SDS011;56517;51.634;5.566;2023-09-18T02:49:42;23.10;;;12.60;;
62268;SDS011;56517;51.634;5.566;2023-09-18T02:51:03;19.38;;;12.10;;
62268;SDS011;56517;51.634;5.566;2023-09-18T02:52:24;25.00;;;11.93;;
62268;SDS011;56517;51.634;5.566;2023-09-18T02:53:45;19.60;;;12.07;;
62268;SDS011;56517;51.634;5.566;2023-09-18T02:55:06;20.55;;;12.35;;
62268;SDS011;56517;51.634;5.566;2023-09-18T02:56:27;19.33;;;11.57;;
62268;SDS011;56517;51.634;5.566;2023-09-18T02:57:48;19.35;;;11.45;;
62268;SDS011;56517;51.634;5.566;2023-09-18T02:59:09;18.92;;;12.45;;
62268;SDS011;56517;51.634;5.566;2023-09-18T03:00:30;22.17;;;12.55;;
62268;SDS011;56517;51.634;5.566;2023-09-18T03:01:51;19.88;;;11.90;;
62268;SDS011;56517;51.634;5.566;2023-09-18T03:03:12;20.00;;;12.20;;
62268;SDS011;56517;51.634;5.566;2023-09-18T03:04:33;21.25;;;12.07;;
62268;SDS011;56517;51.634;5.566;2023-09-18T03:05:59;21.17;;;10.73;;
62268;SDS011;56517;51.634;5.566;2023-09-18T03:07:20;20.70;;;11.93;;
62268;SDS011;56517;51.634;5.566;2023-09-18T03:08:42;19.98;;;12.23;;
62268;SDS011;56517;51.634;5.566;2023-09-18T03:10:03;20.10;;;11.52;;
62268;SDS011;56517;51.634;5.566;2023-09-18T03:11:25;23.48;;;11.00;;
62268;SDS011;56517;51.634;5.566;2023-09-18T03:12:49;19.63;;;11.32;;
62268;SDS011;56517;51.634;5.566;2023-09-18T03:14:10;20.25;;;11.32;;
62268;SDS011;56517;51.634;5.566;2023-09-18T03:15:31;20.30;;;11.15;;
62268;SDS011;56517;51.634;5.566;2023-09-18T03:16:52;16.42;;;9.73;;
62268;SDS011;56517;51.634;5.566;2023-09-18T03:18:13;18.40;;;10.98;;
62268;SDS011;56517;51.634;5.566;2023-09-18T03:19:34;22.80;;;9.83;;
62268;SDS011;56517;51.634;5.566;2023-09-18T03:20:55;16.95;;;10.98;;
62268;SDS011;56517;51.634;5.566;2023-09-18T03:22:16;17.15;;;9.93;;
62268;SDS011;56517;51.634;5.566;2023-09-18T03:23:37;18.63;;;10.60;;
62268;SDS011;56517;51.634;5.566;2023-09-18T03:24:57;15.43;;;9.75;;
62268;SDS011;56517;51.634;5.566;2023-09-18T03:26:18;16.75;;;10.30;;
62268;SDS011;56517;51.634;5.566;2023-09-18T03:27:39;17.17;;;9.35;;
62268;SDS011;56517;51.634;5.566;2023-09-18T03:29:00;17.90;;;11.15;;
62268;SDS011;56517;51.634;5.566;2023-09-18T03:30:21;18.33;;;9.65;;
62268;SDS011;56517;51.634;5.566;2023-09-18T03:31:44;17.02;;;10.88;;
62268;SDS011;56517;51.634;5.566;2023-09-18T03:33:05;13.85;;;9.38;;
62268;SDS011;56517;51.634;5.566;2023-09-18T03:34:25;13.95;;;8.10;;
62268;SDS011;56517;51.634;5.566;2023-09-18T03:35:50;15.57;;;8.95;;
62268;SDS011;56517;51.634;5.566;2023-09-18T03:37:11;18.00;;;10.35;;
62268;SDS011;56517;51.634;5.566;2023-09-18T03:38:32;15.45;;;8.77;;
62268;SDS011;56517;51.634;5.566;2023-09-18T03:39:55;18.13;;;9.82;;
62268;SDS011;56517;51.634;5.566;2023-09-18T03:41:16;15.57;;;8.70;;
62268;SDS011;56517;51.634;5.566;2023-09-18T03:42:37;19.75;;;9.27;;
62268;SDS011;56517;51.634;5.566;2023-09-18T03:43:58;16.35;;;10.15;;
62268;SDS011;56517;51.634;5.566;2023-09-18T03:45:19;15.18;;;8.63;;
62268;SDS011;56517;51.634;5.566;2023-09-18T03:46:40;16.65;;;8.77;;
62268;SDS011;56517;51.634;5.566;2023-09-18T03:48:02;19.25;;;9.35;;
62268;SDS011;56517;51.634;5.566;2023-09-18T03:49:22;15.20;;;9.15;;
62268;SDS011;56517;51.634;5.566;2023-09-18T03:50:43;17.60;;;8.50;;
62268;SDS011;56517;51.634;5.566;2023-09-18T03:52:04;16.85;;;9.93;;
62268;SDS011;56517;51.634;5.566;2023-09-18T03:53:25;16.50;;;9.30;;
62268;SDS011;56517;51.634;5.566;2023-09-18T03:54:46;15.27;;;8.68;;
62268;SDS011;56517;51.634;5.566;2023-09-18T03:56:07;13.60;;;8.55;;
62268;SDS011;56517;51.634;5.566;2023-09-18T03:57:28;16.95;;;9.73;;
62268;SDS011;56517;51.634;5.566;2023-09-18T03:58:49;18.15;;;8.60;;
62268;SDS011;56517;51.634;5.566;2023-09-18T04:00:10;19.63;;;9.73;;
62268;SDS011;56517;51.634;5.566;2023-09-18T04:01:31;22.05;;;10.30;;
62268;SDS011;56517;51.634;5.566;2023-09-18T04:02:52;19.67;;;9.60;;
62268;SDS011;56517;51.634;5.566;2023-09-18T04:04:13;14.65;;;8.98;;
62268;SDS011;56517;51.634;5.566;2023-09-18T04:05:34;18.33;;;9.52;;
62268;SDS011;56517;51.634;5.566;2023-09-18T04:06:55;13.68;;;8.75;;
62268;SDS011;56517;51.634;5.566;2023-09-18T04:08:16;16.38;;;8.93;;
62268;SDS011;56517;51.634;5.566;2023-09-18T04:09:37;19.08;;;10.05;;
62268;SDS011;56517;51.634;5.566;2023-09-18T04:10:58;17.48;;;9.57;;
62268;SDS011;56517;51.634;5.566;2023-09-18T04:12:19;12.60;;;8.20;;
62268;SDS011;56517;51.634;5.566;2023-09-18T04:13:40;17.45;;;8.75;;
62268;SDS011;56517;51.634;5.566;2023-09-18T04:15:01;21.60;;;9.38;;
62268;SDS011;56517;51.634;5.566;2023-09-18T04:16:22;20.85;;;9.20;;
62268;SDS011;56517;51.634;5.566;2023-09-18T04:17:44;15.95;;;9.90;;
62268;SDS011;56517;51.634;5.566;2023-09-18T04:19:05;15.27;;;8.85;;
62268;SDS011;56517;51.634;5.566;2023-09-18T04:20:26;14.80;;;8.18;;
62268;SDS011;56517;51.634;5.566;2023-09-18T04:21:48;20.70;;;9.05;;
62268;SDS011;56517;51.634;5.566;2023-09-18T04:24:39;16.60;;;9.20;;
62268;SDS011;56517;51.634;5.566;2023-09-18T04:26:00;21.35;;;9.20;;
62268;SDS011;56517;51.634;5.566;2023-09-18T04:27:22;18.67;;;9.45;;
62268;SDS011;56517;51.634;5.566;2023-09-18T04:28:43;14.38;;;9.60;;
62268;SDS011;56517;51.634;5.566;2023-09-18T04:30:04;19.77;;;8.73;;
62268;SDS011;56517;51.634;5.566;2023-09-18T04:31:25;19.30;;;9.75;;
62268;SDS011;56517;51.634;5.566;2023-09-18T04:32:46;15.50;;;8.90;;
62268;SDS011;56517;51.634;5.566;2023-09-18T04:34:07;24.27;;;8.88;;
62268;SDS011;56517;51.634;5.566;2023-09-18T04:35:28;17.52;;;10.18;;
62268;SDS011;56517;51.634;5.566;2023-09-18T04:36:49;16.92;;;9.30;;
62268;SDS011;56517;51.634;5.566;2023-09-18T04:38:10;22.70;;;10.52;;
62268;SDS011;56517;51.634;5.566;2023-09-18T04:39:35;22.50;;;11.38;;
62268;SDS011;56517;51.634;5.566;2023-09-18T04:40:58;18.40;;;9.55;;
62268;SDS011;56517;51.634;5.566;2023-09-18T04:42:19;18.88;;;9.85;;
62268;SDS011;56517;51.634;5.566;2023-09-18T04:43:40;17.50;;;10.38;;
62268;SDS011;56517;51.634;5.566;2023-09-18T04:45:02;16.10;;;9.00;;
62268;SDS011;56517;51.634;5.566;2023-09-18T04:46:23;21.75;;;10.80;;
62268;SDS011;56517;51.634;5.566;2023-09-18T04:47:45;17.73;;;10.05;;
62268;SDS011;56517;51.634;5.566;2023-09-18T04:49:06;19.23;;;9.68;;
62268;SDS011;56517;51.634;5.566;2023-09-18T04:50:27;19.23;;;10.43;;
62268;SDS011;56517;51.634;5.566;2023-09-18T04:51:48;17.55;;;11.10;;
62268;SDS011;56517;51.634;5.566;2023-09-18T04:53:09;17.50;;;10.15;;
62268;SDS011;56517;51.634;5.566;2023-09-18T04:54:30;23.23;;;10.67;;
62268;SDS011;56517;51.634;5.566;2023-09-18T04:55:51;18.55;;;10.15;;
62268;SDS011;56517;51.634;5.566;2023-09-18T04:57:12;19.70;;;10.02;;
62268;SDS011;56517;51.634;5.566;2023-09-18T04:58:33;17.52;;;9.80;;
62268;SDS011;56517;51.634;5.566;2023-09-18T04:59:54;16.30;;;9.48;;
62268;SDS011;56517;51.634;5.566;2023-09-18T05:01:16;22.42;;;10.23;;
62268;SDS011;56517;51.634;5.566;2023-09-18T05:03:58;22.05;;;11.30;;
62268;SDS011;56517;51.634;5.566;2023-09-18T05:05:19;21.08;;;10.25;;
62268;SDS011;56517;51.634;5.566;2023-09-18T05:06:40;19.55;;;10.57;;
62268;SDS011;56517;51.634;5.566;2023-09-18T05:08:03;16.52;;;10.48;;
62268;SDS011;56517;51.634;5.566;2023-09-18T05:09:25;21.85;;;10.25;;
62268;SDS011;56517;51.634;5.566;2023-09-18T05:10:46;17.90;;;10.43;;
62268;SDS011;56517;51.634;5.566;2023-09-18T05:12:08;17.35;;;11.48;;
62268;SDS011;56517;51.634;5.566;2023-09-18T05:13:34;21.23;;;11.57;;
62268;SDS011;56517;51.634;5.566;2023-09-18T05:14:55;16.48;;;9.60;;
62268;SDS011;56517;51.634;5.566;2023-09-18T05:17:41;16.75;;;10.60;;
62268;SDS011;56517;51.634;5.566;2023-09-18T05:19:03;26.15;;;12.10;;
62268;SDS011;56517;51.634;5.566;2023-09-18T05:20:25;20.48;;;9.90;;
62268;SDS011;56517;51.634;5.566;2023-09-18T05:21:46;22.70;;;11.50;;
62268;SDS011;56517;51.634;5.566;2023-09-18T05:23:07;21.92;;;10.77;;
62268;SDS011;56517;51.634;5.566;2023-09-18T05:24:28;19.02;;;10.57;;
62268;SDS011;56517;51.634;5.566;2023-09-18T05:25:50;19.92;;;11.05;;
62268;SDS011;56517;51.634;5.566;2023-09-18T05:27:10;20.65;;;11.70;;
62268;SDS011;56517;51.634;5.566;2023-09-18T05:28:33;21.08;;;10.60;;
62268;SDS011;56517;51.634;5.566;2023-09-18T05:29:54;20.67;;;11.32;;
62268;SDS011;56517;51.634;5.566;2023-09-18T05:31:15;20.75;;;10.30;;
62268;SDS011;56517;51.634;5.566;2023-09-18T05:32:36;18.05;;;11.80;;
62268;SDS011;56517;51.634;5.566;2023-09-18T05:33:57;21.63;;;11.77;;
62268;SDS011;56517;51.634;5.566;2023-09-18T05:35:18;17.42;;;10.98;;
62268;SDS011;56517;51.634;5.566;2023-09-18T05:36:39;17.02;;;9.85;;
62268;SDS011;56517;51.634;5.566;2023-09-18T05:38:00;15.60;;;8.57;;
62268;SDS011;56517;51.634;5.566;2023-09-18T05:39:21;15.77;;;9.40;;
62268;SDS011;56517;51.634;5.566;2023-09-18T05:40:41;13.85;;;8.52;;
62268;SDS011;56517;51.634;5.566;2023-09-18T05:42:04;13.45;;;8.15;;
62268;SDS011;56517;51.634;5.566;2023-09-18T05:43:25;16.25;;;7.95;;
62268;SDS011;56517;51.634;5.566;2023-09-18T05:44:46;9.55;;;7.38;;
62268;SDS011;56517;51.634;5.566;2023-09-18T05:46:07;10.80;;;7.30;;
62268;SDS011;56517;51.634;5.566;2023-09-18T05:47:28;10.82;;;7.20;;
62268;SDS011;56517;51.634;5.566;2023-09-18T05:48:50;12.88;;;6.93;;
62268;SDS011;56517;51.634;5.566;2023-09-18T05:50:12;12.80;;;6.50;;
62268;SDS011;56517;51.634;5.566;2023-09-18T05:51:36;10.32;;;6.03;;
62268;SDS011;56517;51.634;5.566;2023-09-18T05:52:57;10.77;;;6.43;;
62268;SDS011;56517;51.634;5.566;2023-09-18T05:54:20;6.85;;;5.43;;
62268;SDS011;56517;51.634;5.566;2023-09-18T05:55:41;10.43;;;6.38;;
62268;SDS011;56517;51.634;5.566;2023-09-18T05:57:02;9.43;;;6.10;;
62268;SDS011;56517;51.634;5.566;2023-09-18T05:58:24;14.73;;;6.78;;
62268;SDS011;56517;51.634;5.566;2023-09-18T05:59:47;9.85;;;5.55;;
62268;SDS011;56517;51.634;5.566;2023-09-18T06:01:08;7.85;;;5.07;;
62268;SDS011;56517;51.634;5.566;2023-09-18T06:02:29;10.30;;;5.77;;
62268;SDS011;56517;51.634;5.566;2023-09-18T06:03:50;8.65;;;5.45;;
62268;SDS011;56517;51.634;5.566;2023-09-18T06:05:11;8.90;;;5.75;;
62268;SDS011;56517;51.634;5.566;2023-09-18T06:06:32;13.52;;;6.07;;
62268;SDS011;56517;51.634;5.566;2023-09-18T06:07:53;10.30;;;6.60;;
62268;SDS011;56517;51.634;5.566;2023-09-18T06:09:14;12.45;;;6.82;;
62268;SDS011;56517;51.634;5.566;2023-09-18T06:10:35;10.88;;;5.72;;
62268;SDS011;56517;51.634;5.566;2023-09-18T06:11:56;7.45;;;4.30;;
62268;SDS011;56517;51.634;5.566;2023-09-18T06:13:16;8.52;;;6.03;;
62268;SDS011;56517;51.634;5.566;2023-09-18T06:14:38;12.02;;;5.50;;
62268;SDS011;56517;51.634;5.566;2023-09-18T06:15:58;9.95;;;5.25;;
62268;SDS011;56517;51.634;5.566;2023-09-18T06:17:19;9.98;;;4.70;;
62268;SDS011;56517;51.634;5.566;2023-09-18T06:18:40;7.35;;;4.47;;
62268;SDS011;56517;51.634;5.566;2023-09-18T06:20:02;10.57;;;4.75;;
62268;SDS011;56517;51.634;5.566;2023-09-18T06:21:24;11.35;;;5.07;;
62268;SDS011;56517;51.634;5.566;2023-09-18T06:22:45;9.65;;;5.05;;
62268;SDS011;56517;51.634;5.566;2023-09-18T06:24:06;9.45;;;5.00;;
62268;SDS011;56517;51.634;5.566;2023-09-18T06:25:27;8.05;;;4.93;;
62268;SDS011;56517;51.634;5.566;2023-09-18T06:26:48;7.85;;;5.00;;
62268;SDS011;56517;51.634;5.566;2023-09-18T06:28:09;8.50;;;4.57;;
62268;SDS011;56517;51.634;5.566;2023-09-18T06:29:30;7.22;;;4.57;;
62268;SDS011;56517;51.634;5.566;2023-09-18T06:30:51;9.18;;;4.70;;
62268;SDS011;56517;51.634;5.566;2023-09-18T06:32:12;9.05;;;5.20;;
62268;SDS011;56517;51.634;5.566;2023-09-18T06:33:33;10.38;;;4.97;;
62268;SDS011;56517;51.634;5.566;2023-09-18T06:34:54;6.45;;;4.18;;
62268;SDS011;56517;51.634;5.566;2023-09-18T06:36:15;10.85;;;5.57;;
62268;SDS011;56517;51.634;5.566;2023-09-18T06:37:35;10.63;;;4.78;;
62268;SDS011;56517;51.634;5.566;2023-09-18T06:38:56;7.18;;;4.82;;
62268;SDS011;56517;51.634;5.566;2023-09-18T06:40:17;6.97;;;4.85;;
62268;SDS011;56517;51.634;5.566;2023-09-18T06:41:38;8.35;;;5.03;;
62268;SDS011;56517;51.634;5.566;2023-09-18T06:42:59;8.45;;;4.72;;
62268;SDS011;56517;51.634;5.566;2023-09-18T06:44:23;7.57;;;5.25;;
62268;SDS011;56517;51.634;5.566;2023-09-18T06:45:44;5.28;;;3.92;;
62268;SDS011;56517;51.634;5.566;2023-09-18T06:47:05;8.90;;;5.15;;
62268;SDS011;56517;51.634;5.566;2023-09-18T06:48:25;7.15;;;5.18;;
62268;SDS011;56517;51.634;5.566;2023-09-18T06:49:47;6.65;;;5.32;;
62268;SDS011;56517;51.634;5.566;2023-09-18T06:51:07;9.75;;;4.57;;
62268;SDS011;56517;51.634;5.566;2023-09-18T06:52:28;11.65;;;4.47;;
62268;SDS011;56517;51.634;5.566;2023-09-18T06:53:49;11.50;;;5.25;;
62268;SDS011;56517;51.634;5.566;2023-09-18T06:55:10;10.88;;;6.25;;
62268;SDS011;56517;51.634;5.566;2023-09-18T06:56:31;8.30;;;5.43;;
62268;SDS011;56517;51.634;5.566;2023-09-18T06:57:52;8.52;;;5.57;;
62268;SDS011;56517;51.634;5.566;2023-09-18T06:59:14;7.70;;;5.00;;
62268;SDS011;56517;51.634;5.566;2023-09-18T07:00:34;8.20;;;4.80;;
62268;SDS011;56517;51.634;5.566;2023-09-18T07:01:55;6.00;;;3.97;;
62268;SDS011;56517;51.634;5.566;2023-09-18T07:03:16;9.38;;;5.82;;
62268;SDS011;56517;51.634;5.566;2023-09-18T07:04:38;8.60;;;4.28;;
62268;SDS011;56517;51.634;5.566;2023-09-18T07:06:05;11.13;;;5.30;;
62268;SDS011;56517;51.634;5.566;2023-09-18T07:07:26;9.48;;;5.13;;
62268;SDS011;56517;51.634;5.566;2023-09-18T07:08:47;7.13;;;4.93;;
62268;SDS011;56517;51.634;5.566;2023-09-18T07:10:11;7.95;;;5.53;;
62268;SDS011;56517;51.634;5.566;2023-09-18T07:11:33;10.30;;;5.47;;
62268;SDS011;56517;51.634;5.566;2023-09-18T07:12:54;6.18;;;5.10;;
62268;SDS011;56517;51.634;5.566;2023-09-18T07:14:15;7.05;;;4.03;;
62268;SDS011;56517;51.634;5.566;2023-09-18T07:15:36;7.80;;;5.05;;
62268;SDS011;56517;51.634;5.566;2023-09-18T07:16:57;7.00;;;5.13;;
62268;SDS011;56517;51.634;5.566;2023-09-18T07:18:18;9.60;;;5.80;;
62268;SDS011;56517;51.634;5.566;2023-09-18T07:19:39;8.98;;;5.32;;
62268;SDS011;56517;51.634;5.566;2023-09-18T07:20:59;7.75;;;4.82;;
62268;SDS011;56517;51.634;5.566;2023-09-18T07:22:20;9.50;;;4.55;;
62268;SDS011;56517;51.634;5.566;2023-09-18T07:23:41;9.15;;;4.70;;
62268;SDS011;56517;51.634;5.566;2023-09-18T07:25:02;6.43;;;4.43;;
62268;SDS011;56517;51.634;5.566;2023-09-18T07:26:23;6.75;;;4.65;;
62268;SDS011;56517;51.634;5.566;2023-09-18T07:27:44;10.35;;;5.07;;
62268;SDS011;56517;51.634;5.566;2023-09-18T07:29:05;5.65;;;4.15;;
62268;SDS011;56517;51.634;5.566;2023-09-18T07:30:26;8.88;;;4.95;;
62268;SDS011;56517;51.634;5.566;2023-09-18T07:31:47;9.13;;;4.70;;
62268;SDS011;56517;51.634;5.566;2023-09-18T07:33:08;8.13;;;4.85;;
62268;SDS011;56517;51.634;5.566;2023-09-18T07:34:29;9.27;;;5.53;;
62268;SDS011;56517;51.634;5.566;2023-09-18T07:35:50;7.72;;;4.72;;
62268;SDS011;56517;51.634;5.566;2023-09-18T07:37:14;8.75;;;4.60;;
62268;SDS011;56517;51.634;5.566;2023-09-18T07:38:41;5.93;;;4.35;;
62268;SDS011;56517;51.634;5.566;2023-09-18T07:40:04;7.93;;;4.38;;
62268;SDS011;56517;51.634;5.566;2023-09-18T07:41:26;9.50;;;4.90;;
62268;SDS011;56517;51.634;5.566;2023-09-18T07:42:47;8.75;;;4.80;;
62268;SDS011;56517;51.634;5.566;2023-09-18T07:44:08;7.45;;;4.70;;
62268;SDS011;56517;51.634;5.566;2023-09-18T07:45:29;8.77;;;4.45;;
62268;SDS011;56517;51.634;5.566;2023-09-18T07:46:49;7.03;;;4.05;;
62268;SDS011;56517;51.634;5.566;2023-09-18T07:48:10;7.88;;;4.75;;
62268;SDS011;56517;51.634;5.566;2023-09-18T07:49:31;7.07;;;4.35;;
62268;SDS011;56517;51.634;5.566;2023-09-18T07:50:52;7.47;;;4.70;;
62268;SDS011;56517;51.634;5.566;2023-09-18T07:52:15;9.02;;;4.32;;
62268;SDS011;56517;51.634;5.566;2023-09-18T07:53:36;7.00;;;4.60;;
62268;SDS011;56517;51.634;5.566;2023-09-18T07:54:58;6.03;;;4.60;;
62268;SDS011;56517;51.634;5.566;2023-09-18T07:56:19;6.80;;;4.43;;
62268;SDS011;56517;51.634;5.566;2023-09-18T07:57:40;6.75;;;5.00;;
62268;SDS011;56517;51.634;5.566;2023-09-18T07:59:01;7.22;;;4.72;;
62268;SDS011;56517;51.634;5.566;2023-09-18T08:00:22;8.35;;;4.55;;
62268;SDS011;56517;51.634;5.566;2023-09-18T08:01:43;9.63;;;4.53;;
62268;SDS011;56517;51.634;5.566;2023-09-18T08:03:04;8.47;;;4.70;;
62268;SDS011;56517;51.634;5.566;2023-09-18T08:04:25;9.98;;;4.30;;
62268;SDS011;56517;51.634;5.566;2023-09-18T08:05:46;9.02;;;4.25;;
62268;SDS011;56517;51.634;5.566;2023-09-18T08:08:29;5.97;;;4.85;;
62268;SDS011;56517;51.634;5.566;2023-09-18T08:09:51;6.20;;;4.03;;